Time;durP1;ratioP1;P1;durP2;ratioP2;P2;SDS_P1;SDS_P2;PMS_P1;PMS_P2;Temp;Humidity;BMP_temperature;BMP_pressure;BME280_temperature;BME280_humidity;BME280_pressure;Samples;Min_cycle;Max_cycle;Signal;HPM_P1;HPM_P2
2021/11/14 00:00:36;;;;;;;0.53;0.53;;;;;;;;;;5083493;28;20063;-83
2021/11/14 00:03:03;;;;;;;0.40;0.40;;;;;;;;;;5078547;28;20040;-83
2021/11/14 00:05:29;;;;;;;0.47;0.47;;;;;;;;;;5083391;28;20034;-84
2021/11/14 00:07:55;;;;;;;0.33;0.33;;;;;;;;;;5081817;28;20483;-84
2021/11/14 00:10:21;;;;;;;1.70;1.60;;;;;;;;;;5085478;28;20277;-84
2021/11/14 00:12:47;;;;;;;0.10;0.10;;;;;;;;;;5097215;28;20854;-80
2021/11/14 00:15:14;;;;;;;0.50;0.50;;;;;;;;;;5077181;28;20416;-84
2021/11/14 00:17:40;;;;;;;0.67;0.67;;;;;;;;;;5087177;28;20285;-83
2021/11/14 00:20:08;;;;;;;0.50;0.50;;;;;;;;;;5085986;28;20038;-83
2021/11/14 00:22:34;;;;;;;1.23;0.85;;;;;;;;;;5080422;28;20875;-81
2021/11/14 00:25:00;;;;;;;0.43;0.43;;;;;;;;;;5085348;28;20039;-80
2021/11/14 00:27:27;;;;;;;0.30;0.30;;;;;;;;;;5082608;28;20034;-80
2021/11/14 00:29:53;;;;;;;0.30;0.30;;;;;;;;;;5083103;28;20039;-79
2021/11/14 00:32:19;;;;;;;0.20;0.20;;;;;;;;;;5085877;28;20486;-80
2021/11/14 00:34:49;;;;;;;1.20;1.10;;;;;;;;;;5079547;28;20031;-80
2021/11/14 00:37:15;;;;;;;0.25;0.25;;;;;;;;;;5081054;28;20028;-79
2021/11/14 00:39:42;;;;;;;0.10;0.10;;;;;;;;;;5083224;28;20036;-79
2021/11/14 00:42:08;;;;;;;0.20;0.20;;;;;;;;;;5084612;28;20135;-79
2021/11/14 00:44:34;;;;;;;0.10;0.10;;;;;;;;;;5082818;28;20542;-83
2021/11/14 00:47:00;;;;;;;2.85;1.30;;;;;;;;;;5084457;28;20564;-82
2021/11/14 00:49:26;;;;;;;0.20;0.20;;;;;;;;;;5082019;28;20569;-82
2021/11/14 00:51:52;;;;;;;0.20;0.20;;;;;;;;;;5089669;28;20032;-82
2021/11/14 00:54:18;;;;;;;0.33;0.33;;;;;;;;;;5083554;28;20020;-82
2021/11/14 00:56:44;;;;;;;0.63;0.63;;;;;;;;;;5082368;28;20194;-82
2021/11/14 00:59:10;;;;;;;0.20;0.20;;;;;;;;;;5085032;28;20085;-82
2021/11/14 01:01:36;;;;;;;0.30;0.30;;;;;;;;;;5083043;28;20028;-81
2021/11/14 01:04:02;;;;;;;0.47;0.37;;;;;;;;;;5081404;28;20040;-81
2021/11/14 01:06:28;;;;;;;0.10;0.10;;;;;;;;;;5069728;28;20124;-81
2021/11/14 01:08:54;;;;;;;0.27;0.27;;;;;;;;;;5081545;28;20358;-81
2021/11/14 01:11:20;;;;;;;0.25;0.25;;;;;;;;;;5082974;28;20262;-80
2021/11/14 01:13:46;;;;;;;0.10;0.10;;;;;;;;;;5085204;28;20550;-80
2021/11/14 01:16:14;;;;;;;0.10;0.10;;;;;;;;;;5079034;28;20017;-80
2021/11/14 01:18:40;;;;;;;0.30;0.30;;;;;;;;;;5077034;28;20029;-80
2021/11/14 01:21:08;;;;;;;0.10;0.10;;;;;;;;;;5084149;28;20037;-80
2021/11/14 01:23:34;;;;;;;0.20;0.20;;;;;;;;;;5085773;28;20522;-80
2021/11/14 01:26:01;;;;;;;0.10;0.10;;;;;;;;;;5079589;28;20226;-81
2021/11/14 01:28:27;;;;;;;0.30;0.30;;;;;;;;;;5081562;28;20646;-80
2021/11/14 01:30:55;;;;;;;0.20;0.20;;;;;;;;;;5082006;28;20391;-82
2021/11/14 01:33:22;;;;;;;0.20;0.20;;;;;;;;;;5083736;28;20546;-81
2021/11/14 01:35:48;;;;;;;;;;;;;;;;;;5084988;28;20055;-82
2021/11/14 01:38:14;;;;;;;0.35;0.35;;;;;;;;;;5080155;28;20004;-82
2021/11/14 01:40:48;;;;;;;0.30;0.30;;;;;;;;;;5081430;28;20032;-82
2021/11/14 01:43:16;;;;;;;0.32;0.32;;;;;;;;;;5078765;28;20415;-82
2021/11/14 01:45:42;;;;;;;0.47;0.47;;;;;;;;;;5080437;28;20032;-82
2021/11/14 01:48:08;;;;;;;0.17;0.17;;;;;;;;;;5081886;28;20035;-81
2021/11/14 01:50:35;;;;;;;0.10;0.10;;;;;;;;;;5079565;28;20274;-82
2021/11/14 01:53:02;;;;;;;0.57;0.57;;;;;;;;;;5072763;28;20726;-81
2021/11/14 01:55:29;;;;;;;0.40;0.40;;;;;;;;;;5076603;28;20119;-79
2021/11/14 01:57:57;;;;;;;0.30;0.30;;;;;;;;;;5076332;28;20082;-79
2021/11/14 02:00:30;;;;;;;0.32;0.20;;;;;;;;;;5080698;28;20039;-79
2021/11/14 02:02:56;;;;;;;0.43;0.43;;;;;;;;;;5082971;28;20259;-79
2021/11/14 02:05:23;;;;;;;0.88;0.73;;;;;;;;;;5071854;28;20397;-80
2021/11/14 02:07:49;;;;;;;;;;;;;;;;;;5078701;28;20103;-79
2021/11/14 02:10:15;;;;;;;0.17;0.17;;;;;;;;;;5082534;28;20423;-79
2021/11/14 02:12:42;;;;;;;0.37;0.37;;;;;;;;;;5079690;28;20041;-79
2021/11/14 02:15:09;;;;;;;0.20;0.20;;;;;;;;;;5073466;28;20032;-79
2021/11/14 02:17:36;;;;;;;0.40;0.40;;;;;;;;;;5096265;28;20051;-79
2021/11/14 02:20:02;;;;;;;0.50;0.50;;;;;;;;;;5082523;28;20040;-79
2021/11/14 02:22:28;;;;;;;0.85;0.82;;;;;;;;;;5081003;28;20110;-79
2021/11/14 02:24:54;;;;;;;0.33;0.33;;;;;;;;;;5081027;28;20019;-80
2021/11/14 02:27:20;;;;;;;0.37;0.37;;;;;;;;;;5081450;28;20029;-80
2021/11/14 02:29:46;;;;;;;0.60;0.60;;;;;;;;;;5082968;28;20031;-80
2021/11/14 02:32:12;;;;;;;0.10;0.10;;;;;;;;;;5079018;28;20179;-80
2021/11/14 02:34:39;;;;;;;1.50;1.40;;;;;;;;;;5080732;28;20550;-80
2021/11/14 02:37:05;;;;;;;0.40;0.40;;;;;;;;;;5081545;28;20291;-80
2021/11/14 02:39:31;;;;;;;0.10;0.10;;;;;;;;;;5083288;28;20032;-80
2021/11/14 02:41:58;;;;;;;0.10;0.10;;;;;;;;;;5081080;28;20036;-80
2021/11/14 02:44:24;;;;;;;0.32;0.32;;;;;;;;;;5083381;28;20138;-80
2021/11/14 02:46:50;;;;;;;0.10;0.10;;;;;;;;;;5080344;28;20107;-80
2021/11/14 02:49:17;;;;;;;0.47;0.47;;;;;;;;;;5081999;28;20056;-80
2021/11/14 02:51:43;;;;;;;0.10;0.10;;;;;;;;;;5082133;28;20028;-80
2021/11/14 02:54:09;;;;;;;0.10;0.10;;;;;;;;;;5081412;28;20032;-83
2021/11/14 02:56:35;;;;;;;0.10;0.10;;;;;;;;;;5097777;28;20067;-82
2021/11/14 02:59:01;;;;;;;0.10;0.10;;;;;;;;;;5083187;28;20059;-81
2021/11/14 03:01:48;;;;;;;2.00;0.52;;;;;;;;;;5082110;28;20281;-81
2021/11/14 03:04:17;;;;;;;0.20;0.20;;;;;;;;;;5077926;28;20139;-81
2021/11/14 03:06:43;;;;;;;0.40;0.40;;;;;;;;;;5082619;28;20096;-83
2021/11/14 03:09:09;;;;;;;0.17;0.17;;;;;;;;;;5081925;28;20032;-83
2021/11/14 03:11:36;;;;;;;0.43;0.43;;;;;;;;;;5080095;28;20024;-83
2021/11/14 03:14:02;;;;;;;0.10;0.10;;;;;;;;;;5081763;28;20402;-82
2021/11/14 03:16:28;;;;;;;0.10;0.10;;;;;;;;;;5081368;28;20032;-82
2021/11/14 03:18:56;;;;;;;0.10;0.10;;;;;;;;;;5095502;28;20122;-83
2021/11/14 03:21:22;;;;;;;0.10;0.10;;;;;;;;;;5096243;28;20075;-81
2021/11/14 03:23:48;;;;;;;;;;;;;;;;;;5081721;28;20219;-81
2021/11/14 03:26:15;;;;;;;0.00;0.00;;;;;;;;;;5079641;28;20437;-82
2021/11/14 03:28:42;;;;;;;0.10;0.10;;;;;;;;;;5081440;28;20051;-82
2021/11/14 03:31:08;;;;;;;1.55;1.00;;;;;;;;;;5079342;28;20024;-82
2021/11/14 03:33:34;;;;;;;0.20;0.20;;;;;;;;;;5081368;28;20034;-81
2021/11/14 03:36:04;;;;;;;0.20;0.20;;;;;;;;;;5080982;28;20028;-81
2021/11/14 03:38:35;;;;;;;0.20;0.20;;;;;;;;;;5082418;28;20055;-83
2021/11/14 03:41:02;;;;;;;0.20;0.20;;;;;;;;;;5079496;28;20027;-82
2021/11/14 03:43:28;;;;;;;0.10;0.10;;;;;;;;;;5073983;28;20047;-82
2021/11/14 03:45:54;;;;;;;1.13;0.75;;;;;;;;;;5060819;28;20059;-82
2021/11/14 03:48:22;;;;;;;0.53;0.43;;;;;;;;;;5094406;28;20484;-82
2021/11/14 03:50:48;;;;;;;0.28;0.28;;;;;;;;;;5092563;28;20032;-82
2021/11/14 03:53:14;;;;;;;0.47;0.30;;;;;;;;;;5072192;28;20027;-82
2021/11/14 03:55:40;;;;;;;10.27;0.88;;;;;;;;;;5079856;28;20771;-82
2021/11/14 03:58:07;;;;;;;2.27;0.53;;;;;;;;;;5079654;28;20035;-81
2021/11/14 04:00:35;;;;;;;0.10;0.10;;;;;;;;;;5080634;28;20255;-82
2021/11/14 04:03:01;;;;;;;0.32;0.32;;;;;;;;;;5080592;28;21299;-83
2021/11/14 04:05:29;;;;;;;0.10;0.10;;;;;;;;;;5079453;28;20811;-82
2021/11/14 04:07:55;;;;;;;0.10;0.10;;;;;;;;;;5093830;28;20101;-82
2021/11/14 04:10:22;;;;;;;0.43;0.25;;;;;;;;;;5080130;28;20024;-82
2021/11/14 04:12:48;;;;;;;0.10;0.10;;;;;;;;;;5079577;28;20020;-83
2021/11/14 04:15:15;;;;;;;0.10;0.10;;;;;;;;;;5080465;28;20638;-84
2021/11/14 04:17:41;;;;;;;0.30;0.30;;;;;;;;;;5078118;28;20020;-84
2021/11/14 04:20:09;;;;;;;0.30;0.30;;;;;;;;;;5097778;28;20032;-84
2021/11/14 04:22:36;;;;;;;0.10;0.10;;;;;;;;;;5073980;28;20053;-80
2021/11/14 04:25:02;;;;;;;0.10;0.10;;;;;;;;;;5075971;28;20028;-82
2021/11/14 04:27:28;;;;;;;0.10;0.10;;;;;;;;;;5079411;28;20106;-82
2021/11/14 04:29:54;;;;;;;0.10;0.10;;;;;;;;;;5079862;28;20054;-81
2021/11/14 04:32:20;;;;;;;0.93;0.55;;;;;;;;;;5080676;28;20105;-82
2021/11/14 04:34:46;;;;;;;0.20;0.20;;;;;;;;;;5080245;28;20410;-80
2021/11/14 04:37:12;;;;;;;0.00;0.00;;;;;;;;;;5077716;28;20573;-81
2021/11/14 04:39:38;;;;;;;0.10;0.10;;;;;;;;;;5078544;28;20028;-83
2021/11/14 04:42:07;;;;;;;0.20;0.20;;;;;;;;;;5080616;28;20107;-82
2021/11/14 04:44:33;;;;;;;0.82;0.80;;;;;;;;;;5078839;28;20022;-83
2021/11/14 04:46:59;;;;;;;0.10;0.10;;;;;;;;;;5080238;28;20114;-84
2021/11/14 04:49:25;;;;;;;0.10;0.10;;;;;;;;;;5083937;28;20082;-83
2021/11/14 04:51:52;;;;;;;0.20;0.20;;;;;;;;;;5082398;28;20288;-84
2021/11/14 04:54:19;;;;;;;0.20;0.20;;;;;;;;;;5081987;28;20031;-84
2021/11/14 04:56:44;;;;;;;;;;;;;;;;;;5084716;28;20529;-85
2021/11/14 04:59:11;;;;;;;0.20;0.20;;;;;;;;;;5081683;28;19912;-81
2021/11/14 05:01:38;;;;;;;0.20;0.20;;;;;;;;;;5081960;28;20032;-81
2021/11/14 05:04:04;;;;;;;;;;;;;;;;;;5086421;28;20044;-81
2021/11/14 05:06:30;;;;;;;0.05;0.05;;;;;;;;;;5084763;28;19938;-81
2021/11/14 05:08:56;;;;;;;0.10;0.10;;;;;;;;;;5083964;28;20028;-81
2021/11/14 05:11:22;;;;;;;0.77;0.63;;;;;;;;;;5085589;28;20028;-80
2021/11/14 05:13:48;;;;;;;0.20;0.20;;;;;;;;;;5082735;28;20281;-81
2021/11/14 05:16:14;;;;;;;0.10;0.10;;;;;;;;;;5082130;28;20410;-81
2021/11/14 05:18:40;;;;;;;0.10;0.10;;;;;;;;;;5083578;28;20395;-82
2021/11/14 05:21:07;;;;;;;0.32;0.32;;;;;;;;;;5083650;28;20314;-81
2021/11/14 05:23:34;;;;;;;0.10;0.10;;;;;;;;;;5082772;28;20035;-82
2021/11/14 05:26:00;;;;;;;0.10;0.10;;;;;;;;;;5080635;28;20541;-83
2021/11/14 05:28:26;;;;;;;0.27;0.27;;;;;;;;;;5082357;28;20028;-83
2021/11/14 05:30:52;;;;;;;0.10;0.10;;;;;;;;;;5082535;28;20035;-82
2021/11/14 05:33:18;;;;;;;0.13;0.13;;;;;;;;;;5083216;28;20028;-82
2021/11/14 05:35:44;;;;;;;0.10;0.10;;;;;;;;;;5085680;28;20032;-82
2021/11/14 05:38:10;;;;;;;0.10;0.10;;;;;;;;;;5096588;28;20044;-81
2021/11/14 05:40:36;;;;;;;0.37;0.37;;;;;;;;;;5082322;28;20580;-81
2021/11/14 05:43:03;;;;;;;0.30;0.30;;;;;;;;;;5082602;28;20063;-81
2021/11/14 05:45:29;;;;;;;0.40;0.40;;;;;;;;;;5081793;28;20039;-82
2021/11/14 05:47:55;;;;;;;0.57;0.57;;;;;;;;;;5083604;28;20174;-82
2021/11/14 05:50:21;;;;;;;1.67;0.65;;;;;;;;;;5082882;28;20043;-82
2021/11/14 05:52:48;;;;;;;0.38;0.38;;;;;;;;;;5080671;28;20623;-82
2021/11/14 05:55:14;;;;;;;0.10;0.10;;;;;;;;;;5080005;28;20034;-82
2021/11/14 05:58:17;;;;;;;0.35;0.35;;;;;;;;;;5080184;28;20036;-82
2021/11/14 06:03:11;;;;;;;0.10;0.10;;;;;;;;;;5081734;28;20043;-82
2021/11/14 06:05:40;;;;;;;0.20;0.20;;;;;;;;;;5081214;28;20107;-82
2021/11/14 06:08:07;;;;;;;0.10;0.10;;;;;;;;;;5082790;28;20128;-82
2021/11/14 06:10:34;;;;;;;1.08;0.98;;;;;;;;;;5078801;28;20032;-86
2021/11/14 06:13:00;;;;;;;0.25;0.25;;;;;;;;;;5080910;28;20429;-85
2021/11/14 06:15:26;;;;;;;0.20;0.20;;;;;;;;;;5081267;28;20028;-83
2021/11/14 06:17:52;;;;;;;0.80;0.47;;;;;;;;;;5082341;28;20046;-81
2021/11/14 06:20:21;;;;;;;0.10;0.10;;;;;;;;;;5083326;28;20026;-85
2021/11/14 06:22:47;;;;;;;0.10;0.10;;;;;;;;;;5080786;28;20040;-85
2021/11/14 06:25:14;;;;;;;0.10;0.10;;;;;;;;;;5079312;28;20107;-86
2021/11/14 06:27:40;;;;;;;0.10;0.10;;;;;;;;;;5083857;28;20031;-84
2021/11/14 06:30:08;;;;;;;0.32;0.32;;;;;;;;;;5080480;28;20036;-84
2021/11/14 06:32:34;;;;;;;0.15;0.15;;;;;;;;;;5081678;28;20047;-85
2021/11/14 06:35:00;;;;;;;0.53;0.50;;;;;;;;;;5079906;28;20455;-82
2021/11/14 06:37:27;;;;;;;0.23;0.23;;;;;;;;;;5078325;28;20028;-82
2021/11/14 06:39:53;;;;;;;0.10;0.10;;;;;;;;;;5080351;28;20781;-83
2021/11/14 06:42:19;;;;;;;0.25;0.25;;;;;;;;;;5079651;28;20157;-82
2021/11/14 06:44:46;;;;;;;2.05;1.10;;;;;;;;;;5091212;28;20648;-81
2021/11/14 06:47:12;;;;;;;0.30;0.17;;;;;;;;;;5080584;28;20462;-81
2021/11/14 06:49:38;;;;;;;0.20;0.20;;;;;;;;;;5080840;28;20047;-80
2021/11/14 06:52:05;;;;;;;0.10;0.10;;;;;;;;;;5079722;28;20028;-80
2021/11/14 06:54:31;;;;;;;0.30;0.30;;;;;;;;;;5079482;28;20039;-82
2021/11/14 06:56:58;;;;;;;0.20;0.20;;;;;;;;;;5080122;28;20077;-82
2021/11/14 06:59:24;;;;;;;0.10;0.10;;;;;;;;;;5081735;28;20123;-82
2021/11/14 07:01:50;;;;;;;0.10;0.10;;;;;;;;;;5082981;28;20024;-82
2021/11/14 07:04:16;;;;;;;0.17;0.17;;;;;;;;;;5078139;28;20299;-82
2021/11/14 07:06:42;;;;;;;0.10;0.10;;;;;;;;;;5085943;28;20035;-82
2021/11/14 07:09:08;;;;;;;0.10;0.10;;;;;;;;;;5082527;28;20032;-81
2021/11/14 07:11:38;;;;;;;0.38;0.32;;;;;;;;;;5080119;28;20058;-84
2021/11/14 07:14:04;;;;;;;0.20;0.20;;;;;;;;;;5077521;28;20020;-86
2021/11/14 07:16:31;;;;;;;0.35;0.35;;;;;;;;;;5093560;28;20028;-85
2021/11/14 07:18:57;;;;;;;0.10;0.10;;;;;;;;;;5092818;28;20077;-86
2021/11/14 07:21:23;;;;;;;0.10;0.10;;;;;;;;;;5095296;28;20048;-85
2021/11/14 07:23:50;;;;;;;0.13;0.13;;;;;;;;;;5080007;28;20047;-85
2021/11/14 07:26:16;;;;;;;0.10;0.10;;;;;;;;;;5079658;28;20020;-89
2021/11/14 07:28:42;;;;;;;0.10;0.10;;;;;;;;;;5072890;28;20383;-85
2021/11/14 07:31:08;;;;;;;0.13;0.13;;;;;;;;;;5084645;28;20032;-83
2021/11/14 07:33:34;;;;;;;0.27;0.27;;;;;;;;;;5082242;28;20028;-82
2021/11/14 07:36:01;;;;;;;0.10;0.10;;;;;;;;;;5080285;28;20499;-83
2021/11/14 07:38:27;;;;;;;0.13;0.13;;;;;;;;;;5079924;28;20032;-84
2021/11/14 07:40:53;;;;;;;0.93;0.90;;;;;;;;;;5077234;28;20020;-84
2021/11/14 07:43:19;;;;;;;0.10;0.10;;;;;;;;;;5089144;28;20044;-82
2021/11/14 07:45:45;;;;;;;1.35;1.25;;;;;;;;;;5069505;28;20029;-82
2021/11/14 07:48:12;;;;;;;0.10;0.10;;;;;;;;;;5081407;28;20555;-81
2021/11/14 07:50:38;;;;;;;0.10;0.10;;;;;;;;;;5079618;28;20032;-82
2021/11/14 07:53:04;;;;;;;0.10;0.10;;;;;;;;;;5080642;28;20060;-81
2021/11/14 07:55:31;;;;;;;0.40;0.40;;;;;;;;;;5077196;28;20035;-80
2021/11/14 07:57:59;;;;;;;0.50;0.45;;;;;;;;;;5077149;28;20051;-81
2021/11/14 08:00:25;;;;;;;0.40;0.40;;;;;;;;;;5079535;28;20047;-79
2021/11/14 08:02:52;;;;;;;2.03;1.40;;;;;;;;;;5082580;28;20040;-80
2021/11/14 08:05:18;;;;;;;1.40;1.27;;;;;;;;;;5078866;28;20126;-81
2021/11/14 08:07:45;;;;;;;0.55;0.40;;;;;;;;;;5077585;28;20035;-82
2021/11/14 08:10:12;;;;;;;0.63;0.63;;;;;;;;;;5077289;28;20024;-79
2021/11/14 08:12:38;;;;;;;0.20;0.20;;;;;;;;;;5078086;28;20495;-81
2021/11/14 08:15:04;;;;;;;0.20;0.20;;;;;;;;;;5079103;28;20032;-81
2021/11/14 08:17:30;;;;;;;1.08;1.05;;;;;;;;;;5077939;28;20789;-80
2021/11/14 08:20:00;;;;;;;0.67;0.67;;;;;;;;;;5075858;28;20107;-81
2021/11/14 08:22:26;;;;;;;0.30;0.30;;;;;;;;;;5073564;28;20510;-82
2021/11/14 08:24:52;;;;;;;0.13;0.13;;;;;;;;;;5098865;28;20436;-81
2021/11/14 08:27:18;;;;;;;0.30;0.30;;;;;;;;;;5068617;28;20278;-81
2021/11/14 08:29:44;;;;;;;2.20;0.55;;;;;;;;;;5083310;28;20032;-81
2021/11/14 08:32:10;;;;;;;0.90;0.90;;;;;;;;;;5097055;28;20113;-81
2021/11/14 08:34:37;;;;;;;0.87;0.77;;;;;;;;;;5080018;28;20030;-81
2021/11/14 08:37:03;;;;;;;4.90;2.07;;;;;;;;;;5096031;28;20869;-80
2021/11/14 08:39:29;;;;;;;0.43;0.43;;;;;;;;;;5098207;28;20280;-81
2021/11/14 08:41:55;;;;;;;3.03;2.50;;;;;;;;;;5081943;28;20024;-82
2021/11/14 08:44:25;;;;;;;0.70;0.60;;;;;;;;;;5082626;28;20043;-82
2021/11/14 08:46:51;;;;;;;0.20;0.20;;;;;;;;;;5097320;28;20403;-80
2021/11/14 08:49:17;;;;;;;0.20;0.20;;;;;;;;;;5079834;28;20032;-83
2021/11/14 08:51:43;;;;;;;0.40;0.40;;;;;;;;;;5080183;28;20031;-83
2021/11/14 08:54:09;;;;;;;0.20;0.20;;;;;;;;;;5081821;28;20024;-84
2021/11/14 08:56:36;;;;;;;0.20;0.20;;;;;;;;;;5100681;28;20035;-84
2021/11/14 08:59:04;;;;;;;0.10;0.10;;;;;;;;;;5073559;28;20036;-84
2021/11/14 09:01:30;;;;;;;0.20;0.20;;;;;;;;;;5077152;28;20054;-84
2021/11/14 09:03:56;;;;;;;0.77;0.47;;;;;;;;;;5073137;28;20044;-83
2021/11/14 09:06:22;;;;;;;0.10;0.10;;;;;;;;;;5098616;28;20111;-81
2021/11/14 09:08:48;;;;;;;0.20;0.20;;;;;;;;;;5084656;28;20024;-82
2021/11/14 09:11:15;;;;;;;0.10;0.10;;;;;;;;;;5073431;28;20039;-82
2021/11/14 09:13:41;;;;;;;0.95;0.95;;;;;;;;;;5076299;28;20047;-81
2021/11/14 09:16:07;;;;;;;98.47;46.63;;;;;;;;;;5094609;28;20029;-82
2021/11/14 09:18:34;;;;;;;0.52;0.52;;;;;;;;;;5068250;28;20028;-82
2021/11/14 09:21:00;;;;;;;0.63;0.63;;;;;;;;;;5081553;28;20415;-82
2021/11/14 09:23:27;;;;;;;0.88;0.88;;;;;;;;;;5082087;28;20484;-82
2021/11/14 09:25:54;;;;;;;0.80;0.75;;;;;;;;;;5088724;28;20102;-81
2021/11/14 09:28:20;;;;;;;1.92;1.70;;;;;;;;;;5073232;28;20156;-82
2021/11/14 09:30:49;;;;;;;1.80;0.80;;;;;;;;;;5094876;28;20068;-82
2021/11/14 09:33:16;;;;;;;4.88;2.22;;;;;;;;;;5098546;28;20051;-82
2021/11/14 09:35:42;;;;;;;2.22;1.70;;;;;;;;;;5081267;28;20426;-82
2021/11/14 09:38:08;;;;;;;7.80;3.78;;;;;;;;;;5079632;28;20491;-82
2021/11/14 09:40:34;;;;;;;2.35;1.65;;;;;;;;;;5094713;28;20020;-82
2021/11/14 09:43:02;;;;;;;1.63;1.52;;;;;;;;;;5094598;28;20044;-82
2021/11/14 09:45:28;;;;;;;1.00;0.93;;;;;;;;;;5097076;28;20039;-82
2021/11/14 09:47:55;;;;;;;10.95;1.80;;;;;;;;;;5067903;28;20036;-82
2021/11/14 09:50:22;;;;;;;0.68;0.68;;;;;;;;;;5081736;28;20071;-82
2021/11/14 09:52:48;;;;;;;4.70;2.53;;;;;;;;;;5078735;28;20035;-82
2021/11/14 09:55:15;;;;;;;2.78;2.25;;;;;;;;;;5079317;28;20055;-82
2021/11/14 09:57:41;;;;;;;;;;;;;;;;;;5068056;28;20484;-82
2021/11/14 10:00:09;;;;;;;1.10;0.93;;;;;;;;;;5083541;28;19908;-82
2021/11/14 10:02:39;;;;;;;2.83;1.27;;;;;;;;;;5081608;28;20781;-82
2021/11/14 10:05:07;;;;;;;1.75;1.20;;;;;;;;;;5078827;28;20040;-82
2021/11/14 10:07:33;;;;;;;1.10;1.10;;;;;;;;;;5078892;28;20032;-82
2021/11/14 10:09:59;;;;;;;0.23;0.23;;;;;;;;;;5078955;28;20040;-82
2021/11/14 10:12:35;;;;;;;0.30;0.30;;;;;;;;;;5081531;28;20348;-82
2021/11/14 10:15:07;;;;;;;0.55;0.55;;;;;;;;;;5081817;28;20035;-82
2021/11/14 10:17:34;;;;;;;0.63;0.40;;;;;;;;;;5097007;28;20032;-82
2021/11/14 10:20:03;;;;;;;0.73;0.73;;;;;;;;;;5078832;28;20567;-83
2021/11/14 10:22:29;;;;;;;0.20;0.20;;;;;;;;;;5091432;28;20040;-82
2021/11/14 10:24:55;;;;;;;0.63;0.63;;;;;;;;;;5068917;28;20059;-82
2021/11/14 10:27:24;;;;;;;0.88;0.82;;;;;;;;;;5082419;28;20402;-83
2021/11/14 10:29:51;;;;;;;0.52;0.52;;;;;;;;;;5081629;28;20771;-82
2021/11/14 10:32:17;;;;;;;0.10;0.10;;;;;;;;;;5069719;28;20039;-82
2021/11/14 10:34:51;;;;;;;0.30;0.30;;;;;;;;;;5090466;28;20034;-82
2021/11/14 10:37:21;;;;;;;0.52;0.28;;;;;;;;;;5093737;28;20024;-82
2021/11/14 10:39:51;;;;;;;0.20;0.20;;;;;;;;;;5083130;28;20057;-82
2021/11/14 10:42:18;;;;;;;5.63;0.35;;;;;;;;;;5082707;28;20032;-82
2021/11/14 10:44:52;;;;;;;0.47;0.47;;;;;;;;;;5083718;28;20047;-82
2021/11/14 10:47:22;;;;;;;1.83;1.33;;;;;;;;;;5079505;28;20138;-83
2021/11/14 10:49:58;;;;;;;0.77;0.73;;;;;;;;;;5082277;28;20039;-81
2021/11/14 10:52:25;;;;;;;0.20;0.20;;;;;;;;;;5082552;28;20028;-82
2021/11/14 10:54:56;;;;;;;0.25;0.25;;;;;;;;;;5081324;28;20496;-83
2021/11/14 10:57:26;;;;;;;0.95;0.95;;;;;;;;;;5072372;28;20032;-82
2021/11/14 10:59:52;;;;;;;0.30;0.30;;;;;;;;;;5067612;28;20028;-83
2021/11/14 11:02:20;;;;;;;0.00;0.00;;;;;;;;;;5076419;28;20028;-82
2021/11/14 11:04:51;;;;;;;0.98;0.73;;;;;;;;;;5078130;28;20039;-82
2021/11/14 11:07:17;;;;;;;0.68;0.68;;;;;;;;;;5094841;28;20024;-83
2021/11/14 11:09:43;;;;;;;0.10;0.10;;;;;;;;;;5078732;28;20036;-82
2021/11/14 11:12:19;;;;;;;0.03;0.03;;;;;;;;;;5082278;28;20356;-84
2021/11/14 11:15:11;;;;;;;0.00;0.00;;;;;;;;;;5080959;28;20028;-82
2021/11/14 11:17:43;;;;;;;0.22;0.22;;;;;;;;;;5072498;28;20082;-83
2021/11/14 11:20:10;;;;;;;112.60;90.65;;;;;;;;;;5077930;28;20059;-83
2021/11/14 11:22:35;;;;;;;;;;;;;;;;;;5079606;28;20423;-83
2021/11/14 11:25:03;;;;;;;65.22;16.83;;;;;;;;;;5079669;28;19916;-82
2021/11/14 11:27:29;;;;;;;0.15;0.15;;;;;;;;;;5050012;28;20059;-83
2021/11/14 11:29:55;;;;;;;0.00;0.00;;;;;;;;;;5080462;28;20031;-82
2021/11/14 11:32:21;;;;;;;0.00;0.00;;;;;;;;;;5094439;28;20856;-83
2021/11/14 11:34:48;;;;;;;0.40;0.40;;;;;;;;;;5077061;28;20028;-80
2021/11/14 11:37:14;;;;;;;0.30;0.30;;;;;;;;;;5079151;28;20113;-83
2021/11/14 11:39:41;;;;;;;0.10;0.10;;;;;;;;;;5079557;28;20028;-79
2021/11/14 11:42:07;;;;;;;0.10;0.10;;;;;;;;;;5065370;28;20052;-82
2021/11/14 11:44:34;;;;;;;0.10;0.10;;;;;;;;;;5079498;28;20086;-85
2021/11/14 11:47:05;;;;;;;2.73;1.33;;;;;;;;;;5084793;28;20035;-83
2021/11/14 11:49:32;;;;;;;5.10;4.70;;;;;;;;;;5071972;28;20286;-84
2021/11/14 11:51:58;;;;;;;;;;;;;;;;;;5094239;28;20143;-81
2021/11/14 11:54:43;;;;;;;0.00;0.00;;;;;;;;;;5079992;28;20007;-82
2021/11/14 11:57:13;;;;;;;0.00;0.00;;;;;;;;;;5085184;28;20045;-83
2021/11/14 11:59:48;;;;;;;0.25;0.25;;;;;;;;;;5084992;28;20418;-83
2021/11/14 12:02:19;;;;;;;0.03;0.03;;;;;;;;;;5084435;28;20028;-84
2021/11/14 12:04:48;;;;;;;0.00;0.00;;;;;;;;;;5084254;28;20483;-84
2021/11/14 12:07:17;;;;;;;0.00;0.00;;;;;;;;;;5084143;28;20020;-83
2021/11/14 12:09:48;;;;;;;0.15;0.15;;;;;;;;;;5084911;28;20509;-81
2021/11/14 12:12:34;;;;;;;0.57;0.43;;;;;;;;;;5086304;28;20052;-83
2021/11/14 12:15:00;;;;;;;0.00;0.00;;;;;;;;;;5084392;28;20024;-83
2021/11/14 12:17:29;;;;;;;0.00;0.00;;;;;;;;;;5079735;28;20123;-83
2021/11/14 12:20:04;;;;;;;0.00;0.00;;;;;;;;;;5079138;28;20027;-84
2021/11/14 12:22:38;;;;;;;0.63;0.32;;;;;;;;;;5070237;28;20131;-84
2021/11/14 12:25:04;;;;;;;0.30;0.30;;;;;;;;;;5075306;28;20028;-85
2021/11/14 12:27:33;;;;;;;117.57;40.75;;;;;;;;;;5068264;28;20129;-85
2021/11/14 12:30:07;;;;;;;0.10;0.10;;;;;;;;;;5075900;28;20040;-84
2021/11/14 12:32:42;;;;;;;0.10;0.10;;;;;;;;;;5070599;28;20024;-85
2021/11/14 12:35:13;;;;;;;0.10;0.10;;;;;;;;;;5069883;28;20024;-85
2021/11/14 12:37:50;;;;;;;0.10;0.10;;;;;;;;;;5077354;28;20404;-86
2021/11/14 12:40:21;;;;;;;0.00;0.00;;;;;;;;;;5074321;28;20015;-86
2021/11/14 12:42:47;;;;;;;0.00;0.00;;;;;;;;;;5075018;28;20042;-90
2021/11/14 12:45:14;;;;;;;0.05;0.05;;;;;;;;;;5075435;28;20045;-85
2021/11/14 12:47:42;;;;;;;0.10;0.10;;;;;;;;;;5096861;28;20048;-85
2021/11/14 12:50:22;;;;;;;0.10;0.10;;;;;;;;;;5093413;28;20294;-84
2021/11/14 12:52:50;;;;;;;0.10;0.10;;;;;;;;;;5079137;28;20028;-85
2021/11/14 12:55:18;;;;;;;0.10;0.10;;;;;;;;;;5081743;28;20032;-86
2021/11/14 12:57:44;;;;;;;0.10;0.10;;;;;;;;;;5082799;28;20039;-85
2021/11/14 13:00:11;;;;;;;0.10;0.10;;;;;;;;;;5084824;28;20032;-85
2021/11/14 13:02:37;;;;;;;;;;;;;;;;;;5086699;28;20038;-85
2021/11/14 13:05:10;;;;;;;0.10;0.10;;;;;;;;;;5081430;28;19920;-85
2021/11/14 13:07:36;;;;;;;0.10;0.10;;;;;;;;;;5083604;28;20028;-84
2021/11/14 13:10:14;;;;;;;0.10;0.10;;;;;;;;;;5081780;28;21749;-85
2021/11/14 13:12:47;;;;;;;0.10;0.10;;;;;;;;;;5082409;28;20027;-84
2021/11/14 13:15:14;;;;;;;0.10;0.10;;;;;;;;;;5082323;28;20107;-84
2021/11/14 13:17:50;;;;;;;0.10;0.10;;;;;;;;;;5077681;28;20039;-84
2021/11/14 13:20:17;;;;;;;0.10;0.10;;;;;;;;;;5070000;28;20071;-84
2021/11/14 13:22:46;;;;;;;0.10;0.10;;;;;;;;;;5091357;28;20082;-84
2021/11/14 13:25:13;;;;;;;0.10;0.10;;;;;;;;;;5072454;28;20040;-85
2021/11/14 13:27:39;;;;;;;0.10;0.10;;;;;;;;;;5072582;28;20693;-85
2021/11/14 13:30:06;;;;;;;0.10;0.10;;;;;;;;;;5076812;28;20128;-86
2021/11/14 13:32:32;;;;;;;0.20;0.20;;;;;;;;;;5079773;28;20036;-85
2021/11/14 13:34:59;;;;;;;0.10;0.10;;;;;;;;;;5077484;28;20518;-84
2021/11/14 13:37:30;;;;;;;;;;;;;;;;;;5079183;28;20519;-86
2021/11/14 13:39:59;;;;;;;0.10;0.10;;;;;;;;;;5076969;28;19911;-86
2021/11/14 13:42:29;;;;;;;0.10;0.10;;;;;;;;;;5077269;28;20449;-86
2021/11/14 13:45:03;;;;;;;0.10;0.10;;;;;;;;;;5093437;28;20471;-86
2021/11/14 13:47:30;;;;;;;0.10;0.10;;;;;;;;;;5079318;28;20056;-84
2021/11/14 13:49:56;;;;;;;0.20;0.20;;;;;;;;;;5079523;28;20039;-84
2021/11/14 13:52:23;;;;;;;0.10;0.10;;;;;;;;;;5076117;28;20051;-84
2021/11/14 13:54:55;;;;;;;0.10;0.10;;;;;;;;;;5079342;28;20100;-84
2021/11/14 13:57:28;;;;;;;0.10;0.10;;;;;;;;;;5077472;28;20035;-85
2021/11/14 13:59:55;;;;;;;0.10;0.10;;;;;;;;;;5077862;28;20031;-84
2021/11/14 14:02:23;;;;;;;0.10;0.10;;;;;;;;;;5078305;28;20040;-85
2021/11/14 14:04:55;;;;;;;0.10;0.10;;;;;;;;;;5074951;28;20032;-85
2021/11/14 14:07:22;;;;;;;0.10;0.10;;;;;;;;;;5077358;28;20568;-85
2021/11/14 14:10:00;;;;;;;0.10;0.10;;;;;;;;;;5069772;28;20132;-84
2021/11/14 14:12:28;;;;;;;0.10;0.10;;;;;;;;;;5071561;28;20036;-85
2021/11/14 14:14:56;;;;;;;0.10;0.10;;;;;;;;;;5065191;28;20033;-83
2021/11/14 14:17:24;;;;;;;0.10;0.10;;;;;;;;;;5066602;28;20509;-84
2021/11/14 14:19:51;;;;;;;0.10;0.10;;;;;;;;;;5074750;28;20066;-84
2021/11/14 14:22:17;;;;;;;0.10;0.10;;;;;;;;;;5092710;28;20047;-85
2021/11/14 14:24:52;;;;;;;0.10;0.10;;;;;;;;;;5079438;28;20121;-84
2021/11/14 14:27:23;;;;;;;0.10;0.10;;;;;;;;;;5082486;28;20271;-84
2021/11/14 14:29:59;;;;;;;0.10;0.10;;;;;;;;;;5066670;28;20090;-84
2021/11/14 14:32:26;;;;;;;0.17;0.17;;;;;;;;;;5069844;28;20111;-84
2021/11/14 14:35:03;;;;;;;0.10;0.10;;;;;;;;;;5091241;28;20402;-84
2021/11/14 14:37:39;;;;;;;0.10;0.10;;;;;;;;;;5078739;28;20024;-84
2021/11/14 14:40:06;;;;;;;0.10;0.10;;;;;;;;;;5093999;28;20534;-85
2021/11/14 14:42:32;;;;;;;0.10;0.10;;;;;;;;;;5082316;28;20021;-84
2021/11/14 14:44:58;;;;;;;0.10;0.10;;;;;;;;;;5067257;28;20043;-84
2021/11/14 14:47:24;;;;;;;0.10;0.10;;;;;;;;;;5080728;28;20103;-84
2021/11/14 14:49:50;;;;;;;0.10;0.10;;;;;;;;;;5093805;28;20020;-85